createdAt,value
2022-09-13T00:00:55.825Z,77.62
2022-09-13T00:03:58.713Z,78.12
2022-09-13T00:07:01.421Z,78.21
2022-09-13T00:10:04.680Z,78.25
2022-09-13T00:13:08.387Z,78.47
2022-09-13T00:16:12.529Z,78.51
2022-09-13T00:19:15.148Z,78.57
2022-09-13T00:22:17.933Z,78.66
2022-09-13T00:25:20.548Z,78.90
2022-09-13T00:28:23.349Z,79.08
2022-09-13T00:31:28.245Z,79.31
2022-09-13T00:34:31.861Z,79.58
2022-09-13T00:37:34.913Z,79.75
2022-09-13T00:40:38.024Z,79.95
2022-09-13T00:43:52.180Z,80.07
2022-09-13T00:46:56.188Z,80.03
2022-09-13T00:50:22.197Z,80.52
2022-09-13T00:53:44.487Z,80.37
2022-09-13T00:56:48.545Z,80.60
2022-09-13T01:00:09.057Z,80.59
2022-09-13T01:03:12.244Z,80.57
2022-09-13T01:06:18.375Z,80.86
2022-09-13T01:09:21.886Z,81.12
2022-09-13T01:12:33.450Z,81.33
2022-09-13T01:15:36.418Z,81.72
2022-09-13T01:18:39.268Z,81.78
2022-09-13T01:21:42.086Z,81.92
2022-09-13T01:24:51.615Z,81.99
2022-09-13T01:28:27.048Z,82.38
2022-09-13T01:31:35.846Z,82.48
2022-09-13T01:34:38.637Z,82.38
2022-09-13T01:37:56.924Z,82.54
2022-09-13T01:41:04.989Z,82.68
2022-09-13T01:44:17.646Z,82.84
2022-09-13T01:47:28.460Z,82.72
2022-09-13T01:50:34.343Z,82.41
2022-09-13T01:53:37.182Z,82.51
2022-09-13T01:56:42.166Z,82.84
2022-09-13T01:59:53.510Z,83.13
2022-09-13T02:03:04.670Z,84.19
2022-09-13T02:06:08.883Z,84.29
2022-09-13T02:09:12.314Z,84.61
2022-09-13T02:12:16.654Z,84.86
2022-09-13T02:15:27.379Z,85.22
2022-09-13T02:18:31.234Z,85.40
2022-09-13T02:21:38.960Z,85.42
2022-09-13T02:24:45.579Z,85.77
2022-09-13T02:27:49.294Z,85.88
2022-09-13T02:30:52.298Z,86.28
2022-09-13T02:33:56.934Z,86.37
2022-09-13T02:36:59.667Z,86.84
2022-09-13T02:40:06.765Z,87.20
2022-09-13T02:43:32.902Z,86.91
2022-09-13T02:46:35.461Z,89.06
2022-09-13T02:49:39.690Z,88.59
2022-09-13T02:53:21.170Z,88.18
2022-09-13T02:56:30.383Z,88.28
2022-09-13T02:59:33.728Z,88.27
2022-09-13T03:02:39.043Z,88.37
2022-09-13T03:05:42.209Z,88.41
2022-09-13T03:08:46.358Z,88.55
2022-09-13T03:11:58.214Z,88.70
2022-09-13T03:15:01.090Z,88.32
2022-09-13T03:18:22.558Z,88.39
2022-09-13T03:21:41.423Z,88.39
2022-09-13T03:24:49.923Z,88.56
2022-09-13T03:28:01.833Z,88.75
2022-09-13T03:31:06.493Z,88.65
2022-09-13T03:34:17.836Z,88.37
2022-09-13T03:37:39.339Z,88.10
2022-09-13T03:41:00.384Z,88.26
2022-09-13T03:44:04.166Z,88.45
2022-09-13T03:47:08.227Z,88.42
2022-09-13T03:50:10.956Z,88.53
2022-09-13T03:53:14.803Z,88.56
2022-09-13T03:56:19.034Z,88.70
2022-09-13T03:59:22.611Z,88.60
2022-09-13T04:02:26.087Z,88.54
2022-09-13T04:05:29.231Z,88.65
2022-09-13T04:08:34.812Z,88.77
2022-09-13T04:11:41.199Z,88.97
2022-09-13T04:14:44.893Z,89.36
2022-09-13T04:17:48.531Z,89.55
2022-09-13T04:20:56.861Z,89.56
2022-09-13T04:24:02.077Z,89.65
2022-09-13T04:27:05.142Z,89.52
2022-09-13T04:30:11.435Z,89.54
2022-09-13T04:33:14.294Z,89.33
2022-09-13T04:36:18.174Z,89.23
2022-09-13T04:39:26.203Z,88.93
2022-09-13T04:42:32.382Z,88.82
2022-09-13T04:45:45.390Z,88.74
2022-09-13T04:49:18.817Z,88.70
2022-09-13T04:52:22.846Z,88.37
2022-09-13T04:55:32.152Z,88.46
2022-09-13T04:58:34.834Z,88.31
2022-09-13T05:01:41.874Z,87.98
2022-09-13T21:31:03.107Z,59.26
2022-09-13T21:34:07.435Z,59.48
2022-09-13T21:37:10.031Z,59.99
2022-09-13T21:40:13.251Z,60.27
2022-09-13T21:43:15.934Z,60.91
2022-09-13T21:46:20.000Z,61.37
2022-09-13T21:49:22.726Z,61.70
2022-09-13T21:52:26.355Z,62.47
2022-09-13T21:55:30.488Z,63.08
2022-09-13T21:58:33.432Z,62.19
2022-09-13T22:01:38.342Z,62.57
2022-09-13T22:12:35.173Z,62.20
2022-09-13T22:15:38.090Z,60.77
2022-09-13T22:18:40.793Z,61.75
2022-09-13T22:21:44.931Z,60.99
2022-09-13T22:24:48.824Z,60.65
2022-09-13T22:27:51.615Z,60.79
2022-09-13T22:30:55.183Z,60.80
2022-09-13T22:33:58.771Z,61.24
2022-09-13T22:37:01.429Z,60.72
2022-09-13T22:40:04.935Z,60.31
2022-09-13T22:43:07.612Z,60.73
2022-09-13T22:46:10.487Z,61.58
2022-09-13T22:49:14.132Z,62.61
2022-09-13T22:52:17.173Z,62.35
2022-09-13T22:55:19.819Z,62.99
2022-09-13T22:58:22.794Z,62.87
2022-09-13T23:01:25.678Z,63.22
2022-09-13T23:04:28.839Z,62.83
2022-09-13T23:07:31.826Z,63.23
2022-09-13T23:10:34.697Z,63.45
2022-09-13T23:13:37.557Z,63.63
2022-09-13T23:16:40.600Z,62.79
2022-09-13T23:19:43.114Z,62.64
2022-09-13T23:22:46.175Z,62.84
2022-09-13T23:25:48.763Z,63.17
2022-09-13T23:28:54.045Z,63.41
2022-09-13T23:31:56.968Z,63.90
2022-09-13T23:35:00.208Z,63.58
2022-09-13T23:38:03.420Z,62.79
2022-09-13T23:41:07.745Z,63.04
2022-09-13T23:44:10.333Z,62.80
2022-09-13T23:47:15.249Z,63.67
2022-09-13T23:50:17.773Z,63.99
2022-09-13T23:53:20.709Z,64.30
2022-09-13T23:56:24.729Z,63.43
2022-09-13T23:59:27.766Z,62.99
